sensor_id;sensor_type;location;lat;lon;timestamp;P1;durP1;ratioP1;P2;durP2;ratioP2
59828;SDS011;45708;51.848;107.620;2023-02-01T00:04:15;3.17;;;2.33;;
59828;SDS011;45708;51.848;107.620;2023-02-01T00:09:16;3.27;;;2.97;;
59828;SDS011;45708;51.848;107.620;2023-02-01T00:14:16;1.67;;;1.57;;
59828;SDS011;45708;51.848;107.620;2023-02-01T00:19:17;1.07;;;1.07;;
59828;SDS011;45708;51.848;107.620;2023-02-01T00:24:18;1.27;;;1.27;;
59828;SDS011;45708;51.848;107.620;2023-02-01T00:29:19;1.80;;;1.70;;
59828;SDS011;45708;51.848;107.620;2023-02-01T00:34:20;18.93;;;8.47;;
59828;SDS011;45708;51.848;107.620;2023-02-01T00:39:21;40.17;;;14.93;;
59828;SDS011;45708;51.848;107.620;2023-02-01T00:44:22;28.77;;;16.40;;
59828;SDS011;45708;51.848;107.620;2023-02-01T00:49:22;46.70;;;20.20;;
59828;SDS011;45708;51.848;107.620;2023-02-01T00:54:23;36.53;;;27.97;;
59828;SDS011;45708;51.848;107.620;2023-02-01T00:59:25;48.13;;;31.57;;
59828;SDS011;45708;51.848;107.620;2023-02-01T01:04:25;53.10;;;27.40;;
59828;SDS011;45708;51.848;107.620;2023-02-01T01:09:26;61.73;;;27.07;;
59828;SDS011;45708;51.848;107.620;2023-02-01T01:14:27;49.50;;;27.77;;
59828;SDS011;45708;51.848;107.620;2023-02-01T01:19:28;50.50;;;28.93;;
59828;SDS011;45708;51.848;107.620;2023-02-01T01:24:29;70.33;;;34.53;;
59828;SDS011;45708;51.848;107.620;2023-02-01T01:29:30;45.60;;;14.20;;
59828;SDS011;45708;51.848;107.620;2023-02-01T01:34:31;51.93;;;33.17;;
59828;SDS011;45708;51.848;107.620;2023-02-01T01:39:32;61.23;;;31.10;;
59828;SDS011;45708;51.848;107.620;2023-02-01T01:49:58;64.47;;;33.33;;
59828;SDS011;45708;51.848;107.620;2023-02-01T01:54:59;66.10;;;24.63;;
59828;SDS011;45708;51.848;107.620;2023-02-01T02:00:05;60.63;;;32.23;;
59828;SDS011;45708;51.848;107.620;2023-02-01T02:05:09;9.70;;;9.05;;
59828;SDS011;45708;51.848;107.620;2023-02-01T02:10:12;31.27;;;20.00;;
59828;SDS011;45708;51.848;107.620;2023-02-01T02:15:15;80.87;;;39.10;;
59828;SDS011;45708;51.848;107.620;2023-02-01T02:31:17;28.80;;;19.87;;
59828;SDS011;45708;51.848;107.620;2023-02-01T02:36:47;5.50;;;5.00;;
59828;SDS011;45708;51.848;107.620;2023-02-01T02:42:14;40.97;;;22.77;;
59828;SDS011;45708;51.848;107.620;2023-02-01T02:53:16;12.02;;;10.25;;
59828;SDS011;45708;51.848;107.620;2023-02-01T02:58:21;14.03;;;12.57;;
59828;SDS011;45708;51.848;107.620;2023-02-01T03:03:22;26.80;;;17.37;;
59828;SDS011;45708;51.848;107.620;2023-02-01T03:08:24;29.90;;;18.23;;
59828;SDS011;45708;51.848;107.620;2023-02-01T03:19:00;25.90;;;16.33;;
59828;SDS011;45708;51.848;107.620;2023-02-01T03:24:07;3.17;;;2.97;;
59828;SDS011;45708;51.848;107.620;2023-02-01T03:29:21;7.97;;;7.37;;
59828;SDS011;45708;51.848;107.620;2023-02-01T03:34:47;13.30;;;6.90;;
59828;SDS011;45708;51.848;107.620;2023-02-01T03:39:52;19.23;;;16.57;;
59828;SDS011;45708;51.848;107.620;2023-02-01T03:50:22;4.10;;;3.80;;
59828;SDS011;45708;51.848;107.620;2023-02-01T03:55:25;13.77;;;8.03;;
59828;SDS011;45708;51.848;107.620;2023-02-01T04:00:28;13.63;;;10.67;;
59828;SDS011;45708;51.848;107.620;2023-02-01T04:05:29;18.47;;;11.27;;
59828;SDS011;45708;51.848;107.620;2023-02-01T04:10:30;14.27;;;7.23;;
59828;SDS011;45708;51.848;107.620;2023-02-01T04:15:31;8.67;;;6.30;;
59828;SDS011;45708;51.848;107.620;2023-02-01T04:20:32;10.27;;;7.20;;
59828;SDS011;45708;51.848;107.620;2023-02-01T04:25:33;18.57;;;12.37;;
59828;SDS011;45708;51.848;107.620;2023-02-01T04:30:35;17.80;;;11.40;;
59828;SDS011;45708;51.848;107.620;2023-02-01T04:35:36;18.83;;;10.90;;
59828;SDS011;45708;51.848;107.620;2023-02-01T04:40:36;28.97;;;17.40;;
59828;SDS011;45708;51.848;107.620;2023-02-01T04:45:37;33.47;;;18.03;;
59828;SDS011;45708;51.848;107.620;2023-02-01T04:50:38;8.50;;;5.77;;
59828;SDS011;45708;51.848;107.620;2023-02-01T04:55:39;7.27;;;4.63;;
59828;SDS011;45708;51.848;107.620;2023-02-01T05:00:40;33.70;;;17.80;;
59828;SDS011;45708;51.848;107.620;2023-02-01T05:05:41;32.17;;;14.70;;
59828;SDS011;45708;51.848;107.620;2023-02-01T05:10:42;30.83;;;12.77;;
59828;SDS011;45708;51.848;107.620;2023-02-01T05:15:44;24.17;;;13.53;;
59828;SDS011;45708;51.848;107.620;2023-02-01T05:20:45;9.73;;;5.83;;
59828;SDS011;45708;51.848;107.620;2023-02-01T05:25:46;9.03;;;4.73;;
59828;SDS011;45708;51.848;107.620;2023-02-01T05:30:47;16.50;;;7.20;;
59828;SDS011;45708;51.848;107.620;2023-02-01T05:35:48;7.47;;;3.83;;
59828;SDS011;45708;51.848;107.620;2023-02-01T05:40:50;8.83;;;4.63;;
59828;SDS011;45708;51.848;107.620;2023-02-01T05:45:53;17.23;;;8.47;;
59828;SDS011;45708;51.848;107.620;2023-02-01T05:50:54;11.30;;;4.90;;
59828;SDS011;45708;51.848;107.620;2023-02-01T05:55:55;13.87;;;6.63;;
59828;SDS011;45708;51.848;107.620;2023-02-01T06:00:58;11.27;;;8.97;;
59828;SDS011;45708;51.848;107.620;2023-02-01T06:06:00;4.30;;;2.80;;
59828;SDS011;45708;51.848;107.620;2023-02-01T06:11:01;4.80;;;2.77;;
59828;SDS011;45708;51.848;107.620;2023-02-01T06:16:04;11.50;;;4.77;;
59828;SDS011;45708;51.848;107.620;2023-02-01T06:21:05;9.77;;;4.13;;
59828;SDS011;45708;51.848;107.620;2023-02-01T06:26:06;15.33;;;7.43;;
59828;SDS011;45708;51.848;107.620;2023-02-01T06:31:07;16.03;;;7.53;;
59828;SDS011;45708;51.848;107.620;2023-02-01T06:36:09;17.47;;;8.00;;
59828;SDS011;45708;51.848;107.620;2023-02-01T06:41:11;11.90;;;6.57;;
59828;SDS011;45708;51.848;107.620;2023-02-01T06:46:13;6.87;;;6.27;;
59828;SDS011;45708;51.848;107.620;2023-02-01T06:51:18;50.27;;;13.97;;
59828;SDS011;45708;51.848;107.620;2023-02-01T06:56:21;5.10;;;4.37;;
59828;SDS011;45708;51.848;107.620;2023-02-01T07:01:22;11.10;;;6.30;;
59828;SDS011;45708;51.848;107.620;2023-02-01T07:06:23;6.70;;;5.07;;
59828;SDS011;45708;51.848;107.620;2023-02-01T07:11:23;7.97;;;6.37;;
59828;SDS011;45708;51.848;107.620;2023-02-01T07:16:24;11.20;;;4.77;;
59828;SDS011;45708;51.848;107.620;2023-02-01T07:21:25;11.50;;;6.20;;
59828;SDS011;45708;51.848;107.620;2023-02-01T07:26:26;7.30;;;3.53;;
59828;SDS011;45708;51.848;107.620;2023-02-01T07:31:27;10.67;;;5.73;;
59828;SDS011;45708;51.848;107.620;2023-02-01T07:36:28;18.43;;;7.07;;
59828;SDS011;45708;51.848;107.620;2023-02-01T07:41:28;10.60;;;6.97;;
59828;SDS011;45708;51.848;107.620;2023-02-01T07:46:29;8.70;;;5.80;;
59828;SDS011;45708;51.848;107.620;2023-02-01T07:51:30;3.60;;;3.30;;
59828;SDS011;45708;51.848;107.620;2023-02-01T07:56:31;17.00;;;9.17;;
59828;SDS011;45708;51.848;107.620;2023-02-01T08:01:32;13.47;;;11.77;;
59828;SDS011;45708;51.848;107.620;2023-02-01T08:06:33;9.30;;;6.23;;
59828;SDS011;45708;51.848;107.620;2023-02-01T08:11:34;6.00;;;4.00;;
59828;SDS011;45708;51.848;107.620;2023-02-01T08:16:35;15.90;;;9.23;;
59828;SDS011;45708;51.848;107.620;2023-02-01T08:21:36;16.90;;;10.37;;
59828;SDS011;45708;51.848;107.620;2023-02-01T08:26:36;16.43;;;6.57;;
59828;SDS011;45708;51.848;107.620;2023-02-01T08:31:37;9.90;;;5.10;;
59828;SDS011;45708;51.848;107.620;2023-02-01T08:36:38;8.77;;;6.97;;
59828;SDS011;45708;51.848;107.620;2023-02-01T08:41:39;10.80;;;5.30;;
59828;SDS011;45708;51.848;107.620;2023-02-01T08:46:40;17.83;;;9.00;;
59828;SDS011;45708;51.848;107.620;2023-02-01T08:51:40;13.00;;;4.83;;
59828;SDS011;45708;51.848;107.620;2023-02-01T08:56:41;5.73;;;4.10;;
59828;SDS011;45708;51.848;107.620;2023-02-01T09:01:42;10.17;;;7.27;;
59828;SDS011;45708;51.848;107.620;2023-02-01T09:06:43;16.20;;;9.13;;
59828;SDS011;45708;51.848;107.620;2023-02-01T09:11:44;8.87;;;7.93;;
59828;SDS011;45708;51.848;107.620;2023-02-01T09:16:46;15.87;;;6.63;;
59828;SDS011;45708;51.848;107.620;2023-02-01T09:21:47;11.90;;;6.53;;
59828;SDS011;45708;51.848;107.620;2023-02-01T09:26:47;9.50;;;5.73;;
59828;SDS011;45708;51.848;107.620;2023-02-01T09:31:49;18.60;;;8.77;;
59828;SDS011;45708;51.848;107.620;2023-02-01T09:36:49;23.03;;;12.03;;
59828;SDS011;45708;51.848;107.620;2023-02-01T09:47:12;33.17;;;13.90;;
59828;SDS011;45708;51.848;107.620;2023-02-01T09:52:16;24.77;;;12.70;;
59828;SDS011;45708;51.848;107.620;2023-02-01T09:57:24;16.13;;;8.43;;
59828;SDS011;45708;51.848;107.620;2023-02-01T10:02:28;15.30;;;8.13;;
59828;SDS011;45708;51.848;107.620;2023-02-01T10:07:34;34.47;;;20.83;;
59828;SDS011;45708;51.848;107.620;2023-02-01T10:13:14;33.17;;;17.73;;
59828;SDS011;45708;51.848;107.620;2023-02-01T10:18:57;41.97;;;17.43;;
59828;SDS011;45708;51.848;107.620;2023-02-01T10:24:26;31.42;;;16.42;;
59828;SDS011;45708;51.848;107.620;2023-02-01T10:29:37;24.60;;;16.20;;
59828;SDS011;45708;51.848;107.620;2023-02-01T10:34:40;38.37;;;18.33;;
59828;SDS011;45708;51.848;107.620;2023-02-01T10:39:43;29.13;;;18.30;;
59828;SDS011;45708;51.848;107.620;2023-02-01T10:44:44;45.90;;;19.33;;
59828;SDS011;45708;51.848;107.620;2023-02-01T10:54:55;21.80;;;15.87;;
59828;SDS011;45708;51.848;107.620;2023-02-01T10:59:56;9.60;;;7.53;;
59828;SDS011;45708;51.848;107.620;2023-02-01T11:05:03;17.50;;;13.87;;
59828;SDS011;45708;51.848;107.620;2023-02-01T11:10:10;29.00;;;12.03;;
59828;SDS011;45708;51.848;107.620;2023-02-01T11:15:39;33.87;;;20.97;;
59828;SDS011;45708;51.848;107.620;2023-02-01T11:20:44;25.90;;;16.50;;
59828;SDS011;45708;51.848;107.620;2023-02-01T11:25:51;12.30;;;9.73;;
59828;SDS011;45708;51.848;107.620;2023-02-01T11:30:54;4.67;;;4.37;;
59828;SDS011;45708;51.848;107.620;2023-02-01T11:35:58;20.60;;;12.77;;
59828;SDS011;45708;51.848;107.620;2023-02-01T11:41:12;16.33;;;13.93;;
59828;SDS011;45708;51.848;107.620;2023-02-01T11:46:17;24.15;;;12.55;;
59828;SDS011;45708;51.848;107.620;2023-02-01T11:51:28;11.83;;;10.00;;
59828;SDS011;45708;51.848;107.620;2023-02-01T12:07:52;19.50;;;14.40;;
59828;SDS011;45708;51.848;107.620;2023-02-01T12:13:06;27.23;;;23.07;;
59828;SDS011;45708;51.848;107.620;2023-02-01T12:24:15;43.30;;;28.97;;
59828;SDS011;45708;51.848;107.620;2023-02-01T12:45:52;68.73;;;35.00;;
59828;SDS011;45708;51.848;107.620;2023-02-01T12:50:55;21.87;;;17.90;;
59828;SDS011;45708;51.848;107.620;2023-02-01T12:56:01;15.20;;;8.63;;
59828;SDS011;45708;51.848;107.620;2023-02-01T13:01:07;11.00;;;9.17;;
59828;SDS011;45708;51.848;107.620;2023-02-01T13:11:54;24.33;;;12.80;;
59828;SDS011;45708;51.848;107.620;2023-02-01T13:22:32;24.07;;;16.07;;
59828;SDS011;45708;51.848;107.620;2023-02-01T13:27:45;8.17;;;7.03;;
59828;SDS011;45708;51.848;107.620;2023-02-01T13:38:00;46.37;;;23.23;;
59828;SDS011;45708;51.848;107.620;2023-02-01T13:43:33;8.83;;;6.23;;
59828;SDS011;45708;51.848;107.620;2023-02-01T13:48:45;20.40;;;11.63;;
59828;SDS011;45708;51.848;107.620;2023-02-01T13:53:50;35.53;;;13.93;;
59828;SDS011;45708;51.848;107.620;2023-02-01T13:58:51;49.40;;;23.03;;
59828;SDS011;45708;51.848;107.620;2023-02-01T14:03:55;24.10;;;10.27;;
59828;SDS011;45708;51.848;107.620;2023-02-01T14:19:22;31.00;;;10.90;;
59828;SDS011;45708;51.848;107.620;2023-02-01T14:24:27;25.50;;;13.73;;
59828;SDS011;45708;51.848;107.620;2023-02-01T14:29:36;31.23;;;18.33;;
59828;SDS011;45708;51.848;107.620;2023-02-01T15:11:52;16.53;;;9.77;;
59828;SDS011;45708;51.848;107.620;2023-02-01T15:17:02;24.37;;;5.67;;
59828;SDS011;45708;51.848;107.620;2023-02-01T15:22:18;28.53;;;9.13;;
59828;SDS011;45708;51.848;107.620;2023-02-01T15:27:19;5.90;;;5.00;;
59828;SDS011;45708;51.848;107.620;2023-02-01T15:32:39;12.90;;;3.60;;
59828;SDS011;45708;51.848;107.620;2023-02-01T15:37:40;18.33;;;13.50;;
59828;SDS011;45708;51.848;107.620;2023-02-01T15:43:02;3.80;;;3.20;;
59828;SDS011;45708;51.848;107.620;2023-02-01T15:48:03;8.93;;;5.33;;
59828;SDS011;45708;51.848;107.620;2023-02-01T15:53:04;7.57;;;5.00;;
59828;SDS011;45708;51.848;107.620;2023-02-01T15:58:09;10.23;;;8.40;;
59828;SDS011;45708;51.848;107.620;2023-02-01T16:08:37;19.77;;;8.90;;
59828;SDS011;45708;51.848;107.620;2023-02-01T16:13:51;15.40;;;11.57;;
59828;SDS011;45708;51.848;107.620;2023-02-01T16:18:51;5.10;;;3.37;;
59828;SDS011;45708;51.848;107.620;2023-02-01T16:23:52;7.43;;;5.17;;
59828;SDS011;45708;51.848;107.620;2023-02-01T16:28:53;6.67;;;5.43;;
59828;SDS011;45708;51.848;107.620;2023-02-01T16:33:54;8.93;;;4.43;;
59828;SDS011;45708;51.848;107.620;2023-02-01T16:38:55;5.87;;;5.30;;
59828;SDS011;45708;51.848;107.620;2023-02-01T16:43:56;3.90;;;3.57;;
59828;SDS011;45708;51.848;107.620;2023-02-01T16:48:57;10.40;;;3.33;;
59828;SDS011;45708;51.848;107.620;2023-02-01T16:54:00;9.47;;;8.30;;
59828;SDS011;45708;51.848;107.620;2023-02-01T16:59:01;2.60;;;2.40;;
59828;SDS011;45708;51.848;107.620;2023-02-01T17:04:02;10.63;;;4.57;;
59828;SDS011;45708;51.848;107.620;2023-02-01T17:09:04;5.43;;;2.57;;
59828;SDS011;45708;51.848;107.620;2023-02-01T17:14:20;6.00;;;5.43;;
59828;SDS011;45708;51.848;107.620;2023-02-01T17:19:21;5.63;;;3.87;;
59828;SDS011;45708;51.848;107.620;2023-02-01T17:24:25;7.80;;;1.63;;
59828;SDS011;45708;51.848;107.620;2023-02-01T17:29:28;10.70;;;8.57;;
59828;SDS011;45708;51.848;107.620;2023-02-01T17:34:29;22.63;;;10.53;;
59828;SDS011;45708;51.848;107.620;2023-02-01T17:39:29;3.30;;;3.00;;
59828;SDS011;45708;51.848;107.620;2023-02-01T17:44:30;2.17;;;1.97;;
59828;SDS011;45708;51.848;107.620;2023-02-01T17:49:31;5.17;;;1.47;;
59828;SDS011;45708;51.848;107.620;2023-02-01T17:54:32;2.83;;;2.33;;
59828;SDS011;45708;51.848;107.620;2023-02-01T17:59:33;7.40;;;4.30;;
59828;SDS011;45708;51.848;107.620;2023-02-01T18:04:34;3.87;;;3.47;;
59828;SDS011;45708;51.848;107.620;2023-02-01T18:09:34;3.67;;;2.90;;
59828;SDS011;45708;51.848;107.620;2023-02-01T18:14:35;6.67;;;3.10;;
59828;SDS011;45708;51.848;107.620;2023-02-01T18:19:36;6.10;;;3.50;;
59828;SDS011;45708;51.848;107.620;2023-02-01T18:24:37;1.43;;;1.17;;
59828;SDS011;45708;51.848;107.620;2023-02-01T18:29:38;5.83;;;5.13;;
59828;SDS011;45708;51.848;107.620;2023-02-01T18:34:38;6.90;;;1.27;;
59828;SDS011;45708;51.848;107.620;2023-02-01T18:39:39;3.23;;;1.10;;
59828;SDS011;45708;51.848;107.620;2023-02-01T18:44:40;5.47;;;4.97;;
59828;SDS011;45708;51.848;107.620;2023-02-01T18:49:41;4.17;;;2.20;;
59828;SDS011;45708;51.848;107.620;2023-02-01T18:54:42;7.70;;;4.00;;
59828;SDS011;45708;51.848;107.620;2023-02-01T18:59:42;5.10;;;2.20;;
59828;SDS011;45708;51.848;107.620;2023-02-01T19:04:43;4.43;;;3.27;;
59828;SDS011;45708;51.848;107.620;2023-02-01T19:09:44;8.67;;;4.97;;
59828;SDS011;45708;51.848;107.620;2023-02-01T19:14:45;1.83;;;1.73;;
59828;SDS011;45708;51.848;107.620;2023-02-01T19:19:45;1.50;;;1.40;;
59828;SDS011;45708;51.848;107.620;2023-02-01T19:24:46;7.53;;;6.97;;
59828;SDS011;45708;51.848;107.620;2023-02-01T19:29:47;13.63;;;5.23;;
59828;SDS011;45708;51.848;107.620;2023-02-01T19:34:48;7.13;;;3.90;;
59828;SDS011;45708;51.848;107.620;2023-02-01T19:39:49;2.33;;;2.23;;
59828;SDS011;45708;51.848;107.620;2023-02-01T19:44:49;0.20;;;0.20;;
59828;SDS011;45708;51.848;107.620;2023-02-01T19:49:50;1.57;;;1.47;;
59828;SDS011;45708;51.848;107.620;2023-02-01T19:54:51;8.50;;;4.87;;
59828;SDS011;45708;51.848;107.620;2023-02-01T19:59:53;0.97;;;0.97;;
59828;SDS011;45708;51.848;107.620;2023-02-01T20:04:54;3.40;;;2.07;;
59828;SDS011;45708;51.848;107.620;2023-02-01T20:09:55;4.47;;;2.23;;
59828;SDS011;45708;51.848;107.620;2023-02-01T20:14:55;3.80;;;1.87;;
59828;SDS011;45708;51.848;107.620;2023-02-01T20:19:56;3.10;;;3.00;;
59828;SDS011;45708;51.848;107.620;2023-02-01T20:24:57;1.23;;;1.23;;
59828;SDS011;45708;51.848;107.620;2023-02-01T20:29:58;3.97;;;2.20;;
59828;SDS011;45708;51.848;107.620;2023-02-01T20:34:59;4.70;;;2.90;;
59828;SDS011;45708;51.848;107.620;2023-02-01T20:40:00;2.53;;;1.53;;
59828;SDS011;45708;51.848;107.620;2023-02-01T20:45:01;8.20;;;4.83;;
59828;SDS011;45708;51.848;107.620;2023-02-01T20:50:03;7.67;;;3.60;;
59828;SDS011;45708;51.848;107.620;2023-02-01T20:55:04;13.03;;;5.60;;
59828;SDS011;45708;51.848;107.620;2023-02-01T21:00:05;6.50;;;4.10;;
59828;SDS011;45708;51.848;107.620;2023-02-01T21:05:07;8.83;;;3.40;;
59828;SDS011;45708;51.848;107.620;2023-02-01T21:10:08;5.30;;;4.37;;
59828;SDS011;45708;51.848;107.620;2023-02-01T21:15:10;12.07;;;6.03;;
59828;SDS011;45708;51.848;107.620;2023-02-01T21:20:11;1.67;;;1.07;;
59828;SDS011;45708;51.848;107.620;2023-02-01T21:25:12;7.97;;;2.63;;
59828;SDS011;45708;51.848;107.620;2023-02-01T21:30:13;1.57;;;1.47;;
59828;SDS011;45708;51.848;107.620;2023-02-01T21:35:14;13.00;;;10.80;;
59828;SDS011;45708;51.848;107.620;2023-02-01T21:40:16;5.97;;;2.90;;
59828;SDS011;45708;51.848;107.620;2023-02-01T21:45:17;3.47;;;0.90;;
59828;SDS011;45708;51.848;107.620;2023-02-01T21:50:18;2.37;;;1.20;;
59828;SDS011;45708;51.848;107.620;2023-02-01T21:55:19;4.33;;;3.73;;
59828;SDS011;45708;51.848;107.620;2023-02-01T22:00:20;1.43;;;1.33;;
59828;SDS011;45708;51.848;107.620;2023-02-01T22:05:21;1.90;;;1.80;;
59828;SDS011;45708;51.848;107.620;2023-02-01T22:10:22;5.03;;;4.70;;
59828;SDS011;45708;51.848;107.620;2023-02-01T22:15:22;6.03;;;2.97;;
59828;SDS011;45708;51.848;107.620;2023-02-01T22:20:23;11.00;;;3.47;;
59828;SDS011;45708;51.848;107.620;2023-02-01T22:25:24;8.43;;;4.60;;
59828;SDS011;45708;51.848;107.620;2023-02-01T22:30:25;1.03;;;0.77;;
59828;SDS011;45708;51.848;107.620;2023-02-01T22:35:26;2.23;;;1.83;;
59828;SDS011;45708;51.848;107.620;2023-02-01T22:40:26;1.30;;;1.20;;
59828;SDS011;45708;51.848;107.620;2023-02-01T22:45:27;8.97;;;3.33;;
59828;SDS011;45708;51.848;107.620;2023-02-01T22:50:28;1.70;;;1.60;;
59828;SDS011;45708;51.848;107.620;2023-02-01T22:55:30;0.13;;;0.13;;
59828;SDS011;45708;51.848;107.620;2023-02-01T23:00:30;0.63;;;0.63;;
59828;SDS011;45708;51.848;107.620;2023-02-01T23:05:31;2.93;;;2.83;;
59828;SDS011;45708;51.848;107.620;2023-02-01T23:10:32;9.43;;;7.33;;
59828;SDS011;45708;51.848;107.620;2023-02-01T23:15:33;9.63;;;5.80;;
59828;SDS011;45708;51.848;107.620;2023-02-01T23:20:34;4.03;;;2.73;;
59828;SDS011;45708;51.848;107.620;2023-02-01T23:25:34;7.20;;;4.10;;
59828;SDS011;45708;51.848;107.620;2023-02-01T23:30:35;11.00;;;4.10;;
59828;SDS011;45708;51.848;107.620;2023-02-01T23:35:36;31.27;;;8.53;;
59828;SDS011;45708;51.848;107.620;2023-02-01T23:40:37;14.27;;;9.03;;
59828;SDS011;45708;51.848;107.620;2023-02-01T23:45:38;12.97;;;4.37;;
59828;SDS011;45708;51.848;107.620;2023-02-01T23:50:38;6.93;;;4.77;;
59828;SDS011;45708;51.848;107.620;2023-02-01T23:55:39;9.30;;;4.93;;
